sensor_id;sensor_type;location;lat;lon;timestamp;temperature;humidity
5059;DHT22;2548;52.050;11.036;2023-03-07T00:00:36;0.10;99.90
5059;DHT22;2548;52.050;11.036;2023-03-07T00:03:05;0.10;99.90
5059;DHT22;2548;52.050;11.036;2023-03-07T00:05:33;0.10;99.90
5059;DHT22;2548;52.050;11.036;2023-03-07T00:08:00;0.10;99.90
5059;DHT22;2548;52.050;11.036;2023-03-07T00:10:27;0.20;99.90
5059;DHT22;2548;52.050;11.036;2023-03-07T00:12:55;0.20;99.90
5059;DHT22;2548;52.050;11.036;2023-03-07T00:15:23;0.20;99.90
5059;DHT22;2548;52.050;11.036;2023-03-07T00:17:51;0.20;99.90
5059;DHT22;2548;52.050;11.036;2023-03-07T00:20:19;0.30;99.90
5059;DHT22;2548;52.050;11.036;2023-03-07T00:22:47;0.30;99.90
5059;DHT22;2548;52.050;11.036;2023-03-07T00:25:15;0.30;99.90
5059;DHT22;2548;52.050;11.036;2023-03-07T00:27:42;0.30;99.90
5059;DHT22;2548;52.050;11.036;2023-03-07T00:30:10;0.30;99.90
5059;DHT22;2548;52.050;11.036;2023-03-07T00:32:38;0.30;99.90
5059;DHT22;2548;52.050;11.036;2023-03-07T00:35:06;0.30;99.90
5059;DHT22;2548;52.050;11.036;2023-03-07T00:37:35;0.40;99.90
5059;DHT22;2548;52.050;11.036;2023-03-07T00:40:03;0.40;99.90
5059;DHT22;2548;52.050;11.036;2023-03-07T00:42:32;0.50;99.90
5059;DHT22;2548;52.050;11.036;2023-03-07T00:45:00;0.60;99.90
5059;DHT22;2548;52.050;11.036;2023-03-07T00:47:27;0.60;99.90
5059;DHT22;2548;52.050;11.036;2023-03-07T00:49:55;0.70;99.90
5059;DHT22;2548;52.050;11.036;2023-03-07T00:52:22;0.70;99.90
5059;DHT22;2548;52.050;11.036;2023-03-07T00:54:51;0.80;99.90
5059;DHT22;2548;52.050;11.036;2023-03-07T00:57:19;0.80;99.90
5059;DHT22;2548;52.050;11.036;2023-03-07T00:59:46;0.90;99.90
5059;DHT22;2548;52.050;11.036;2023-03-07T01:02:14;0.90;99.90
5059;DHT22;2548;52.050;11.036;2023-03-07T01:04:41;1.00;99.90
5059;DHT22;2548;52.050;11.036;2023-03-07T01:07:08;1.00;99.90
5059;DHT22;2548;52.050;11.036;2023-03-07T01:09:36;1.00;99.90
5059;DHT22;2548;52.050;11.036;2023-03-07T01:12:06;1.10;99.90
5059;DHT22;2548;52.050;11.036;2023-03-07T01:14:33;1.10;99.90
5059;DHT22;2548;52.050;11.036;2023-03-07T01:17:01;1.10;99.90
5059;DHT22;2548;52.050;11.036;2023-03-07T01:19:29;1.10;99.90
5059;DHT22;2548;52.050;11.036;2023-03-07T01:21:56;1.10;99.90
5059;DHT22;2548;52.050;11.036;2023-03-07T01:24:23;1.10;99.90
5059;DHT22;2548;52.050;11.036;2023-03-07T01:26:51;1.10;99.90
5059;DHT22;2548;52.050;11.036;2023-03-07T01:29:20;1.20;99.90
5059;DHT22;2548;52.050;11.036;2023-03-07T01:31:48;1.30;99.90
5059;DHT22;2548;52.050;11.036;2023-03-07T01:34:15;1.30;99.90
5059;DHT22;2548;52.050;11.036;2023-03-07T01:36:43;1.30;99.90
5059;DHT22;2548;52.050;11.036;2023-03-07T01:39:12;1.40;99.90
5059;DHT22;2548;52.050;11.036;2023-03-07T01:41:45;1.40;99.90
5059;DHT22;2548;52.050;11.036;2023-03-07T01:44:15;1.40;99.90
5059;DHT22;2548;52.050;11.036;2023-03-07T01:46:47;1.50;99.90
5059;DHT22;2548;52.050;11.036;2023-03-07T01:49:19;1.50;99.90
5059;DHT22;2548;52.050;11.036;2023-03-07T01:51:53;1.60;99.90
5059;DHT22;2548;52.050;11.036;2023-03-07T01:54:23;1.70;99.90
5059;DHT22;2548;52.050;11.036;2023-03-07T01:56:53;1.70;99.90
5059;DHT22;2548;52.050;11.036;2023-03-07T01:59:26;1.80;99.90
5059;DHT22;2548;52.050;11.036;2023-03-07T02:01:59;1.80;99.90
5059;DHT22;2548;52.050;11.036;2023-03-07T02:04:32;1.90;99.90
5059;DHT22;2548;52.050;11.036;2023-03-07T02:07:00;2.00;99.90
5059;DHT22;2548;52.050;11.036;2023-03-07T02:09:30;2.00;99.90
5059;DHT22;2548;52.050;11.036;2023-03-07T02:12:00;2.00;99.90
5059;DHT22;2548;52.050;11.036;2023-03-07T02:14:28;2.00;99.90
5059;DHT22;2548;52.050;11.036;2023-03-07T02:16:57;1.90;99.90
5059;DHT22;2548;52.050;11.036;2023-03-07T02:19:34;2.00;99.90
5059;DHT22;2548;52.050;11.036;2023-03-07T02:22:08;2.00;99.90
5059;DHT22;2548;52.050;11.036;2023-03-07T02:24:41;1.90;99.90
5059;DHT22;2548;52.050;11.036;2023-03-07T02:27:11;1.90;99.90
5059;DHT22;2548;52.050;11.036;2023-03-07T02:29:40;1.90;99.90
5059;DHT22;2548;52.050;11.036;2023-03-07T02:32:07;1.90;99.90
5059;DHT22;2548;52.050;11.036;2023-03-07T02:34:35;1.90;99.90
5059;DHT22;2548;52.050;11.036;2023-03-07T02:37:10;1.90;99.90
5059;DHT22;2548;52.050;11.036;2023-03-07T02:39:41;1.90;99.90
5059;DHT22;2548;52.050;11.036;2023-03-07T02:42:14;1.90;99.90
5059;DHT22;2548;52.050;11.036;2023-03-07T02:44:55;1.80;99.90
5059;DHT22;2548;52.050;11.036;2023-03-07T02:47:23;1.80;99.90
5059;DHT22;2548;52.050;11.036;2023-03-07T02:49:51;1.70;99.90
5059;DHT22;2548;52.050;11.036;2023-03-07T02:52:18;1.80;99.90
5059;DHT22;2548;52.050;11.036;2023-03-07T02:54:47;1.80;99.90
5059;DHT22;2548;52.050;11.036;2023-03-07T02:57:16;1.80;99.90
5059;DHT22;2548;52.050;11.036;2023-03-07T02:59:44;1.80;99.90
5059;DHT22;2548;52.050;11.036;2023-03-07T03:02:12;1.80;99.90
5059;DHT22;2548;52.050;11.036;2023-03-07T03:04:39;1.80;99.90
5059;DHT22;2548;52.050;11.036;2023-03-07T03:07:06;1.80;99.90
5059;DHT22;2548;52.050;11.036;2023-03-07T03:09:35;1.90;99.90
5059;DHT22;2548;52.050;11.036;2023-03-07T03:12:03;1.90;99.90
5059;DHT22;2548;52.050;11.036;2023-03-07T03:14:34;1.90;99.90
5059;DHT22;2548;52.050;11.036;2023-03-07T03:17:01;1.90;99.90
5059;DHT22;2548;52.050;11.036;2023-03-07T03:19:29;2.00;99.90
5059;DHT22;2548;52.050;11.036;2023-03-07T03:21:57;2.00;99.90
5059;DHT22;2548;52.050;11.036;2023-03-07T03:24:26;2.10;99.90
5059;DHT22;2548;52.050;11.036;2023-03-07T03:26:55;2.10;99.90
5059;DHT22;2548;52.050;11.036;2023-03-07T03:29:25;2.20;99.90
5059;DHT22;2548;52.050;11.036;2023-03-07T03:31:57;2.30;99.90
5059;DHT22;2548;52.050;11.036;2023-03-07T03:34:26;2.30;99.90
5059;DHT22;2548;52.050;11.036;2023-03-07T03:36:53;2.30;99.90
5059;DHT22;2548;52.050;11.036;2023-03-07T03:39:21;2.40;99.90
5059;DHT22;2548;52.050;11.036;2023-03-07T03:41:53;2.40;99.90
5059;DHT22;2548;52.050;11.036;2023-03-07T03:44:22;2.50;99.90
5059;DHT22;2548;52.050;11.036;2023-03-07T03:46:50;2.60;99.90
5059;DHT22;2548;52.050;11.036;2023-03-07T03:49:22;2.60;99.90
5059;DHT22;2548;52.050;11.036;2023-03-07T03:51:51;2.60;99.90
5059;DHT22;2548;52.050;11.036;2023-03-07T03:54:18;2.60;99.90
5059;DHT22;2548;52.050;11.036;2023-03-07T03:56:46;2.60;99.90
5059;DHT22;2548;52.050;11.036;2023-03-07T03:59:13;2.60;99.90
5059;DHT22;2548;52.050;11.036;2023-03-07T04:01:41;2.70;99.90
5059;DHT22;2548;52.050;11.036;2023-03-07T04:04:09;2.70;99.90
5059;DHT22;2548;52.050;11.036;2023-03-07T04:06:39;2.70;99.90
5059;DHT22;2548;52.050;11.036;2023-03-07T04:09:07;2.80;99.90
5059;DHT22;2548;52.050;11.036;2023-03-07T04:11:36;2.90;99.90
5059;DHT22;2548;52.050;11.036;2023-03-07T04:14:04;3.00;99.90
5059;DHT22;2548;52.050;11.036;2023-03-07T04:16:32;3.10;99.90
5059;DHT22;2548;52.050;11.036;2023-03-07T04:19:00;3.10;99.90
5059;DHT22;2548;52.050;11.036;2023-03-07T04:21:28;3.10;99.90
5059;DHT22;2548;52.050;11.036;2023-03-07T04:23:58;3.10;99.90
5059;DHT22;2548;52.050;11.036;2023-03-07T04:26:32;3.20;99.90
5059;DHT22;2548;52.050;11.036;2023-03-07T04:28:59;3.20;99.90
5059;DHT22;2548;52.050;11.036;2023-03-07T04:31:33;3.20;99.90
5059;DHT22;2548;52.050;11.036;2023-03-07T04:34:03;3.20;99.90
5059;DHT22;2548;52.050;11.036;2023-03-07T04:36:31;3.10;99.90
5059;DHT22;2548;52.050;11.036;2023-03-07T04:39:00;3.10;99.90
5059;DHT22;2548;52.050;11.036;2023-03-07T04:41:28;3.10;99.90
5059;DHT22;2548;52.050;11.036;2023-03-07T04:44:06;3.10;99.90
5059;DHT22;2548;52.050;11.036;2023-03-07T04:46:34;3.10;99.90
5059;DHT22;2548;52.050;11.036;2023-03-07T04:49:02;3.10;99.90
5059;DHT22;2548;52.050;11.036;2023-03-07T04:51:30;3.10;99.90
5059;DHT22;2548;52.050;11.036;2023-03-07T04:53:57;3.00;99.90
5059;DHT22;2548;52.050;11.036;2023-03-07T04:56:26;3.00;99.90
5059;DHT22;2548;52.050;11.036;2023-03-07T04:58:55;3.00;99.90
5059;DHT22;2548;52.050;11.036;2023-03-07T05:01:22;3.00;99.90
5059;DHT22;2548;52.050;11.036;2023-03-07T05:03:50;3.00;99.90
5059;DHT22;2548;52.050;11.036;2023-03-07T05:06:20;3.10;99.90
5059;DHT22;2548;52.050;11.036;2023-03-07T05:08:49;3.00;99.90
5059;DHT22;2548;52.050;11.036;2023-03-07T05:11:17;3.00;99.90
5059;DHT22;2548;52.050;11.036;2023-03-07T05:13:46;3.00;99.90
5059;DHT22;2548;52.050;11.036;2023-03-07T05:16:17;2.90;99.90
5059;DHT22;2548;52.050;11.036;2023-03-07T05:18:45;2.90;99.90
5059;DHT22;2548;52.050;11.036;2023-03-07T05:21:12;2.90;99.90
5059;DHT22;2548;52.050;11.036;2023-03-07T05:23:40;2.90;99.90
5059;DHT22;2548;52.050;11.036;2023-03-07T05:26:09;2.90;99.90
5059;DHT22;2548;52.050;11.036;2023-03-07T05:28:37;2.90;99.90
5059;DHT22;2548;52.050;11.036;2023-03-07T05:31:06;2.90;99.90
5059;DHT22;2548;52.050;11.036;2023-03-07T05:33:33;2.90;99.90
5059;DHT22;2548;52.050;11.036;2023-03-07T05:36:01;2.90;99.90
5059;DHT22;2548;52.050;11.036;2023-03-07T05:38:29;3.00;99.90
5059;DHT22;2548;52.050;11.036;2023-03-07T05:40:57;2.90;99.90
5059;DHT22;2548;52.050;11.036;2023-03-07T05:43:25;2.90;99.90
5059;DHT22;2548;52.050;11.036;2023-03-07T05:45:52;2.90;99.90
5059;DHT22;2548;52.050;11.036;2023-03-07T05:48:21;2.90;99.90
5059;DHT22;2548;52.050;11.036;2023-03-07T05:50:49;2.90;99.90
5059;DHT22;2548;52.050;11.036;2023-03-07T05:53:18;2.80;99.90
5059;DHT22;2548;52.050;11.036;2023-03-07T05:55:45;2.80;99.90
5059;DHT22;2548;52.050;11.036;2023-03-07T05:58:15;2.80;99.90
5059;DHT22;2548;52.050;11.036;2023-03-07T06:00:45;2.90;99.90
5059;DHT22;2548;52.050;11.036;2023-03-07T06:03:13;2.90;99.90
5059;DHT22;2548;52.050;11.036;2023-03-07T06:05:42;2.90;99.90
5059;DHT22;2548;52.050;11.036;2023-03-07T06:08:09;2.90;99.90
5059;DHT22;2548;52.050;11.036;2023-03-07T06:10:37;2.90;99.90
5059;DHT22;2548;52.050;11.036;2023-03-07T06:13:05;3.00;99.90
5059;DHT22;2548;52.050;11.036;2023-03-07T06:15:33;3.00;99.90
5059;DHT22;2548;52.050;11.036;2023-03-07T06:18:04;3.00;99.90
5059;DHT22;2548;52.050;11.036;2023-03-07T06:20:32;3.10;99.90
5059;DHT22;2548;52.050;11.036;2023-03-07T06:23:00;3.10;99.90
5059;DHT22;2548;52.050;11.036;2023-03-07T06:25:29;3.20;99.90
5059;DHT22;2548;52.050;11.036;2023-03-07T06:27:57;3.20;99.90
5059;DHT22;2548;52.050;11.036;2023-03-07T06:30:28;3.20;99.90
5059;DHT22;2548;52.050;11.036;2023-03-07T06:32:55;3.20;99.90
5059;DHT22;2548;52.050;11.036;2023-03-07T06:35:22;3.20;99.90
5059;DHT22;2548;52.050;11.036;2023-03-07T06:37:50;3.30;99.90
5059;DHT22;2548;52.050;11.036;2023-03-07T06:40:19;3.30;99.90
5059;DHT22;2548;52.050;11.036;2023-03-07T06:42:47;3.30;99.90
5059;DHT22;2548;52.050;11.036;2023-03-07T06:45:15;3.30;99.90
5059;DHT22;2548;52.050;11.036;2023-03-07T06:47:43;3.40;99.90
5059;DHT22;2548;52.050;11.036;2023-03-07T06:50:11;3.30;99.90
5059;DHT22;2548;52.050;11.036;2023-03-07T06:52:39;3.40;99.90
5059;DHT22;2548;52.050;11.036;2023-03-07T06:55:07;3.40;99.90
5059;DHT22;2548;52.050;11.036;2023-03-07T06:57:37;3.50;99.90
5059;DHT22;2548;52.050;11.036;2023-03-07T07:00:06;3.50;99.90
5059;DHT22;2548;52.050;11.036;2023-03-07T07:02:34;3.60;99.90
5059;DHT22;2548;52.050;11.036;2023-03-07T07:05:04;3.60;99.90
5059;DHT22;2548;52.050;11.036;2023-03-07T07:07:32;3.70;99.90
5059;DHT22;2548;52.050;11.036;2023-03-07T07:09:59;3.70;99.90
5059;DHT22;2548;52.050;11.036;2023-03-07T07:12:27;3.80;99.90
5059;DHT22;2548;52.050;11.036;2023-03-07T07:14:56;3.90;99.90
5059;DHT22;2548;52.050;11.036;2023-03-07T07:17:27;3.90;99.90
5059;DHT22;2548;52.050;11.036;2023-03-07T07:19:55;3.90;99.90
5059;DHT22;2548;52.050;11.036;2023-03-07T07:22:22;3.90;99.90
5059;DHT22;2548;52.050;11.036;2023-03-07T07:24:50;3.90;99.90
5059;DHT22;2548;52.050;11.036;2023-03-07T07:27:17;4.00;99.90
5059;DHT22;2548;52.050;11.036;2023-03-07T07:29:46;4.00;99.90
5059;DHT22;2548;52.050;11.036;2023-03-07T07:32:15;4.00;99.90
5059;DHT22;2548;52.050;11.036;2023-03-07T07:34:43;4.10;99.90
5059;DHT22;2548;52.050;11.036;2023-03-07T07:37:10;4.10;99.90
5059;DHT22;2548;52.050;11.036;2023-03-07T07:39:38;4.10;99.90
5059;DHT22;2548;52.050;11.036;2023-03-07T07:42:09;4.00;99.90
5059;DHT22;2548;52.050;11.036;2023-03-07T07:44:46;4.00;99.90
5059;DHT22;2548;52.050;11.036;2023-03-07T07:47:16;3.80;99.90
5059;DHT22;2548;52.050;11.036;2023-03-07T07:49:43;3.70;99.90
5059;DHT22;2548;52.050;11.036;2023-03-07T07:52:11;3.50;99.90
5059;DHT22;2548;52.050;11.036;2023-03-07T07:54:39;3.40;99.90
5059;DHT22;2548;52.050;11.036;2023-03-07T07:57:07;3.30;99.90
5059;DHT22;2548;52.050;11.036;2023-03-07T07:59:34;3.30;99.90
5059;DHT22;2548;52.050;11.036;2023-03-07T08:02:02;3.30;99.90
5059;DHT22;2548;52.050;11.036;2023-03-07T08:04:31;3.20;99.90
5059;DHT22;2548;52.050;11.036;2023-03-07T08:07:00;3.10;99.90
5059;DHT22;2548;52.050;11.036;2023-03-07T08:09:28;3.10;99.90
5059;DHT22;2548;52.050;11.036;2023-03-07T08:11:55;3.10;99.90
5059;DHT22;2548;52.050;11.036;2023-03-07T08:14:23;3.10;99.90
5059;DHT22;2548;52.050;11.036;2023-03-07T08:16:50;3.10;99.90
5059;DHT22;2548;52.050;11.036;2023-03-07T08:19:17;3.10;99.90
5059;DHT22;2548;52.050;11.036;2023-03-07T08:21:46;3.10;99.90
5059;DHT22;2548;52.050;11.036;2023-03-07T08:24:14;3.20;99.90
5059;DHT22;2548;52.050;11.036;2023-03-07T08:26:41;3.20;99.90
5059;DHT22;2548;52.050;11.036;2023-03-07T08:29:08;3.20;99.90
5059;DHT22;2548;52.050;11.036;2023-03-07T08:31:36;3.20;99.90
5059;DHT22;2548;52.050;11.036;2023-03-07T08:34:03;3.20;99.90
5059;DHT22;2548;52.050;11.036;2023-03-07T08:36:31;3.10;99.90
5059;DHT22;2548;52.050;11.036;2023-03-07T08:39:00;3.10;99.90
5059;DHT22;2548;52.050;11.036;2023-03-07T08:41:27;3.10;99.90
5059;DHT22;2548;52.050;11.036;2023-03-07T08:43:55;3.10;99.90
5059;DHT22;2548;52.050;11.036;2023-03-07T08:46:22;3.10;99.90
5059;DHT22;2548;52.050;11.036;2023-03-07T08:48:49;3.10;99.90
5059;DHT22;2548;52.050;11.036;2023-03-07T08:51:17;3.10;99.90
5059;DHT22;2548;52.050;11.036;2023-03-07T08:53:45;3.10;99.90
5059;DHT22;2548;52.050;11.036;2023-03-07T08:56:15;3.10;99.90
5059;DHT22;2548;52.050;11.036;2023-03-07T08:58:43;3.20;99.90
5059;DHT22;2548;52.050;11.036;2023-03-07T09:01:11;3.20;99.90
5059;DHT22;2548;52.050;11.036;2023-03-07T09:03:39;3.20;99.90
5059;DHT22;2548;52.050;11.036;2023-03-07T09:06:06;3.20;99.90
5059;DHT22;2548;52.050;11.036;2023-03-07T09:08:34;3.30;99.90
5059;DHT22;2548;52.050;11.036;2023-03-07T09:11:01;3.30;99.90
5059;DHT22;2548;52.050;11.036;2023-03-07T09:13:31;3.30;99.90
5059;DHT22;2548;52.050;11.036;2023-03-07T09:15:59;3.30;99.90
5059;DHT22;2548;52.050;11.036;2023-03-07T09:18:26;3.30;99.90
5059;DHT22;2548;52.050;11.036;2023-03-07T09:20:54;3.30;99.90
5059;DHT22;2548;52.050;11.036;2023-03-07T09:23:21;3.40;99.90
5059;DHT22;2548;52.050;11.036;2023-03-07T09:25:49;3.40;99.90
5059;DHT22;2548;52.050;11.036;2023-03-07T09:28:16;3.40;99.90
5059;DHT22;2548;52.050;11.036;2023-03-07T09:30:45;3.30;99.90
5059;DHT22;2548;52.050;11.036;2023-03-07T09:33:12;3.20;99.90
5059;DHT22;2548;52.050;11.036;2023-03-07T09:35:40;3.20;99.90
5059;DHT22;2548;52.050;11.036;2023-03-07T09:38:07;3.10;99.90
5059;DHT22;2548;52.050;11.036;2023-03-07T09:40:36;3.10;99.90
5059;DHT22;2548;52.050;11.036;2023-03-07T09:43:09;3.00;99.90
5059;DHT22;2548;52.050;11.036;2023-03-07T09:45:57;3.00;99.90
5059;DHT22;2548;52.050;11.036;2023-03-07T09:48:53;2.90;99.90
5059;DHT22;2548;52.050;11.036;2023-03-07T09:51:24;2.90;99.90
5059;DHT22;2548;52.050;11.036;2023-03-07T09:53:54;2.90;99.90
5059;DHT22;2548;52.050;11.036;2023-03-07T09:56:28;2.90;99.90
5059;DHT22;2548;52.050;11.036;2023-03-07T09:59:00;2.90;99.90
5059;DHT22;2548;52.050;11.036;2023-03-07T10:01:32;2.90;99.90
5059;DHT22;2548;52.050;11.036;2023-03-07T10:04:03;2.80;99.90
5059;DHT22;2548;52.050;11.036;2023-03-07T10:06:34;2.80;99.90
5059;DHT22;2548;52.050;11.036;2023-03-07T10:09:05;2.80;99.90
5059;DHT22;2548;52.050;11.036;2023-03-07T10:11:51;2.90;99.90
5059;DHT22;2548;52.050;11.036;2023-03-07T10:14:37;2.90;99.90
5059;DHT22;2548;52.050;11.036;2023-03-07T10:17:14;2.90;99.90
5059;DHT22;2548;52.050;11.036;2023-03-07T10:19:48;2.80;99.90
5059;DHT22;2548;52.050;11.036;2023-03-07T10:22:21;2.80;99.90
5059;DHT22;2548;52.050;11.036;2023-03-07T10:25:03;2.70;99.90
5059;DHT22;2548;52.050;11.036;2023-03-07T10:27:33;2.50;99.90
5059;DHT22;2548;52.050;11.036;2023-03-07T10:30:09;2.30;99.90
5059;DHT22;2548;52.050;11.036;2023-03-07T10:32:42;2.10;99.90
5059;DHT22;2548;52.050;11.036;2023-03-07T10:35:15;1.90;99.90
5059;DHT22;2548;52.050;11.036;2023-03-07T10:37:47;1.80;99.90
5059;DHT22;2548;52.050;11.036;2023-03-07T10:40:22;1.80;99.90
5059;DHT22;2548;52.050;11.036;2023-03-07T10:42:51;1.80;99.90
5059;DHT22;2548;52.050;11.036;2023-03-07T10:45:19;1.80;99.90
5059;DHT22;2548;52.050;11.036;2023-03-07T10:47:48;1.80;99.90
5059;DHT22;2548;52.050;11.036;2023-03-07T10:50:23;1.80;99.90
5059;DHT22;2548;52.050;11.036;2023-03-07T10:52:55;1.80;99.90
5059;DHT22;2548;52.050;11.036;2023-03-07T10:55:35;1.80;99.90
5059;DHT22;2548;52.050;11.036;2023-03-07T10:58:21;1.90;99.90
5059;DHT22;2548;52.050;11.036;2023-03-07T11:01:00;1.80;99.90
5059;DHT22;2548;52.050;11.036;2023-03-07T11:03:32;1.80;99.90
5059;DHT22;2548;52.050;11.036;2023-03-07T11:06:03;1.80;99.90
5059;DHT22;2548;52.050;11.036;2023-03-07T11:08:31;1.80;99.90
5059;DHT22;2548;52.050;11.036;2023-03-07T11:11:01;1.90;99.90
5059;DHT22;2548;52.050;11.036;2023-03-07T11:13:30;2.00;99.90
5059;DHT22;2548;52.050;11.036;2023-03-07T11:16:19;2.10;99.90
5059;DHT22;2548;52.050;11.036;2023-03-07T11:18:49;2.20;99.90
5059;DHT22;2548;52.050;11.036;2023-03-07T11:21:28;2.20;99.90
5059;DHT22;2548;52.050;11.036;2023-03-07T11:23:59;2.30;99.90
5059;DHT22;2548;52.050;11.036;2023-03-07T11:26:31;2.40;99.90
5059;DHT22;2548;52.050;11.036;2023-03-07T11:29:09;2.40;99.90
5059;DHT22;2548;52.050;11.036;2023-03-07T11:31:45;2.50;99.90
5059;DHT22;2548;52.050;11.036;2023-03-07T11:34:30;2.50;99.90
5059;DHT22;2548;52.050;11.036;2023-03-07T11:37:09;2.50;99.90
5059;DHT22;2548;52.050;11.036;2023-03-07T11:39:47;2.50;99.90
5059;DHT22;2548;52.050;11.036;2023-03-07T11:42:22;2.50;99.90
5059;DHT22;2548;52.050;11.036;2023-03-07T11:44:52;2.50;99.90
5059;DHT22;2548;52.050;11.036;2023-03-07T11:47:31;2.40;99.90
5059;DHT22;2548;52.050;11.036;2023-03-07T11:50:13;2.40;99.90
5059;DHT22;2548;52.050;11.036;2023-03-07T11:52:56;2.40;99.90
5059;DHT22;2548;52.050;11.036;2023-03-07T11:55:32;2.30;99.90
5059;DHT22;2548;52.050;11.036;2023-03-07T11:58:24;2.30;99.90
5059;DHT22;2548;52.050;11.036;2023-03-07T12:01:09;2.20;99.90
5059;DHT22;2548;52.050;11.036;2023-03-07T12:06:45;2.10;99.90
5059;DHT22;2548;52.050;11.036;2023-03-07T12:09:22;2.00;99.90
5059;DHT22;2548;52.050;11.036;2023-03-07T12:12:19;2.00;99.90
5059;DHT22;2548;52.050;11.036;2023-03-07T12:14:56;2.00;99.90
5059;DHT22;2548;52.050;11.036;2023-03-07T12:17:35;2.00;99.90
5059;DHT22;2548;52.050;11.036;2023-03-07T12:20:27;2.00;99.90
5059;DHT22;2548;52.050;11.036;2023-03-07T12:23:12;1.90;99.90
5059;DHT22;2548;52.050;11.036;2023-03-07T12:25:44;1.90;99.90
5059;DHT22;2548;52.050;11.036;2023-03-07T12:28:20;2.00;99.90
5059;DHT22;2548;52.050;11.036;2023-03-07T12:30:53;2.00;99.90
5059;DHT22;2548;52.050;11.036;2023-03-07T12:33:28;2.00;99.90
5059;DHT22;2548;52.050;11.036;2023-03-07T12:35:59;2.00;99.90
5059;DHT22;2548;52.050;11.036;2023-03-07T12:38:36;2.00;99.90
5059;DHT22;2548;52.050;11.036;2023-03-07T12:41:18;2.00;99.90
5059;DHT22;2548;52.050;11.036;2023-03-07T12:43:51;2.10;99.90
5059;DHT22;2548;52.050;11.036;2023-03-07T12:46:23;2.10;99.90
5059;DHT22;2548;52.050;11.036;2023-03-07T12:48:58;2.10;99.90
5059;DHT22;2548;52.050;11.036;2023-03-07T12:51:31;2.10;99.90
5059;DHT22;2548;52.050;11.036;2023-03-07T12:54:07;2.10;99.90
5059;DHT22;2548;52.050;11.036;2023-03-07T12:56:45;2.20;99.90
5059;DHT22;2548;52.050;11.036;2023-03-07T12:59:15;2.10;99.90
5059;DHT22;2548;52.050;11.036;2023-03-07T13:01:46;2.20;99.90
5059;DHT22;2548;52.050;11.036;2023-03-07T13:04:16;2.20;99.90
5059;DHT22;2548;52.050;11.036;2023-03-07T13:06:45;2.20;99.90
5059;DHT22;2548;52.050;11.036;2023-03-07T13:09:17;2.30;99.90
5059;DHT22;2548;52.050;11.036;2023-03-07T13:12:21;2.30;99.90
5059;DHT22;2548;52.050;11.036;2023-03-07T13:14:49;2.30;99.90
5059;DHT22;2548;52.050;11.036;2023-03-07T13:20:43;2.40;99.90
5059;DHT22;2548;52.050;11.036;2023-03-07T13:23:26;2.50;99.90
5059;DHT22;2548;52.050;11.036;2023-03-07T13:26:12;2.60;99.90
5059;DHT22;2548;52.050;11.036;2023-03-07T13:28:50;2.60;99.90
5059;DHT22;2548;52.050;11.036;2023-03-07T13:31:27;2.60;99.90
5059;DHT22;2548;52.050;11.036;2023-03-07T13:37:54;2.60;99.90
5059;DHT22;2548;52.050;11.036;2023-03-07T13:40:51;2.50;99.90
5059;DHT22;2548;52.050;11.036;2023-03-07T13:52:43;2.50;99.90
5059;DHT22;2548;52.050;11.036;2023-03-07T13:55:22;2.40;99.90
5059;DHT22;2548;52.050;11.036;2023-03-07T13:57:50;2.40;99.90
5059;DHT22;2548;52.050;11.036;2023-03-07T14:00:23;2.40;99.90
5059;DHT22;2548;52.050;11.036;2023-03-07T14:02:51;2.30;99.90
5059;DHT22;2548;52.050;11.036;2023-03-07T14:05:19;2.30;99.90
5059;DHT22;2548;52.050;11.036;2023-03-07T14:07:48;2.40;99.90
5059;DHT22;2548;52.050;11.036;2023-03-07T14:10:20;2.30;99.90
5059;DHT22;2548;52.050;11.036;2023-03-07T14:13:06;2.40;99.90
5059;DHT22;2548;52.050;11.036;2023-03-07T14:15:46;2.40;99.90
5059;DHT22;2548;52.050;11.036;2023-03-07T14:18:25;2.40;99.90
5059;DHT22;2548;52.050;11.036;2023-03-07T14:20:57;2.50;99.90
5059;DHT22;2548;52.050;11.036;2023-03-07T14:23:58;2.50;99.90
5059;DHT22;2548;52.050;11.036;2023-03-07T14:26:32;2.50;99.90
5059;DHT22;2548;52.050;11.036;2023-03-07T14:29:11;2.50;99.90
5059;DHT22;2548;52.050;11.036;2023-03-07T14:31:42;2.50;99.90
5059;DHT22;2548;52.050;11.036;2023-03-07T14:34:20;2.50;99.90
5059;DHT22;2548;52.050;11.036;2023-03-07T14:36:55;2.50;99.90
5059;DHT22;2548;52.050;11.036;2023-03-07T14:39:25;2.50;99.90
5059;DHT22;2548;52.050;11.036;2023-03-07T14:42:02;2.50;99.90
5059;DHT22;2548;52.050;11.036;2023-03-07T14:47:59;2.50;99.90
5059;DHT22;2548;52.050;11.036;2023-03-07T14:50:29;2.50;99.90
5059;DHT22;2548;52.050;11.036;2023-03-07T14:53:01;2.60;99.90
5059;DHT22;2548;52.050;11.036;2023-03-07T14:55:34;2.60;99.90
5059;DHT22;2548;52.050;11.036;2023-03-07T14:58:03;2.60;99.90
5059;DHT22;2548;52.050;11.036;2023-03-07T15:00:31;2.60;99.90
5059;DHT22;2548;52.050;11.036;2023-03-07T15:03:04;2.60;99.90
5059;DHT22;2548;52.050;11.036;2023-03-07T15:05:35;2.60;99.90
5059;DHT22;2548;52.050;11.036;2023-03-07T15:08:07;2.60;99.90
5059;DHT22;2548;52.050;11.036;2023-03-07T15:10:43;2.60;99.90
5059;DHT22;2548;52.050;11.036;2023-03-07T15:13:19;2.60;99.90
5059;DHT22;2548;52.050;11.036;2023-03-07T15:15:50;2.60;99.90
5059;DHT22;2548;52.050;11.036;2023-03-07T15:18:22;2.60;99.90
5059;DHT22;2548;52.050;11.036;2023-03-07T15:20:54;2.60;99.90
5059;DHT22;2548;52.050;11.036;2023-03-07T15:23:24;2.60;99.90
5059;DHT22;2548;52.050;11.036;2023-03-07T15:25:54;2.60;99.90
5059;DHT22;2548;52.050;11.036;2023-03-07T15:28:26;2.60;99.90
5059;DHT22;2548;52.050;11.036;2023-03-07T15:30:55;2.60;99.90
5059;DHT22;2548;52.050;11.036;2023-03-07T15:33:25;2.60;99.90
5059;DHT22;2548;52.050;11.036;2023-03-07T15:36:07;2.60;99.90
5059;DHT22;2548;52.050;11.036;2023-03-07T15:38:35;2.60;99.90
5059;DHT22;2548;52.050;11.036;2023-03-07T15:41:28;2.50;99.90
5059;DHT22;2548;52.050;11.036;2023-03-07T15:44:13;2.60;99.90
5059;DHT22;2548;52.050;11.036;2023-03-07T15:46:43;2.50;99.90
5059;DHT22;2548;52.050;11.036;2023-03-07T15:49:20;2.50;99.90
5059;DHT22;2548;52.050;11.036;2023-03-07T15:51:50;2.50;99.90
5059;DHT22;2548;52.050;11.036;2023-03-07T15:54:28;2.50;99.90
5059;DHT22;2548;52.050;11.036;2023-03-07T15:56:56;2.50;99.90
5059;DHT22;2548;52.050;11.036;2023-03-07T15:59:27;2.50;99.90
5059;DHT22;2548;52.050;11.036;2023-03-07T16:01:56;2.40;99.90
5059;DHT22;2548;52.050;11.036;2023-03-07T16:04:35;2.40;99.90
5059;DHT22;2548;52.050;11.036;2023-03-07T16:07:03;2.40;99.90
5059;DHT22;2548;52.050;11.036;2023-03-07T16:09:31;2.40;99.90
5059;DHT22;2548;52.050;11.036;2023-03-07T16:11:59;2.40;99.90
5059;DHT22;2548;52.050;11.036;2023-03-07T16:14:28;2.30;99.90
5059;DHT22;2548;52.050;11.036;2023-03-07T16:16:59;2.20;99.90
5059;DHT22;2548;52.050;11.036;2023-03-07T16:19:27;1.90;99.90
5059;DHT22;2548;52.050;11.036;2023-03-07T16:21:56;1.80;99.90
5059;DHT22;2548;52.050;11.036;2023-03-07T16:24:23;1.60;99.90
5059;DHT22;2548;52.050;11.036;2023-03-07T16:26:51;1.50;99.90
5059;DHT22;2548;52.050;11.036;2023-03-07T16:29:21;1.50;99.90
5059;DHT22;2548;52.050;11.036;2023-03-07T16:31:48;1.50;99.90
5059;DHT22;2548;52.050;11.036;2023-03-07T16:34:17;1.50;99.90
5059;DHT22;2548;52.050;11.036;2023-03-07T16:36:46;1.40;99.90
5059;DHT22;2548;52.050;11.036;2023-03-07T16:39:15;1.40;99.90
5059;DHT22;2548;52.050;11.036;2023-03-07T16:41:45;1.40;99.90
5059;DHT22;2548;52.050;11.036;2023-03-07T16:44:14;1.40;99.90
5059;DHT22;2548;52.050;11.036;2023-03-07T16:46:43;1.40;99.90
5059;DHT22;2548;52.050;11.036;2023-03-07T16:49:14;1.40;99.90